M/T Goviken — 9HA2718 — position and weather

sailwx.info

Track history (hours):
 
Tides and Currents Weather Stations Pressure Air Temp Water Temp Dewpoint Dewpoint Depression Visibility Wind Speed Wind Dir Waves Ship Positions

M/T Goviken

Last reported at 2014-Nov-01 04:33 UTC. Time now 2014-Nov-01 04:55 UTC.
Position N 52°21' E 003°48'.

Length 88 m; draft 6.5 m.

Type: Ship (hazmat cat C). MMSI: 215389000.

Date/timePositionNaut miles runAvg speedWind from/ knotsBaromVisibWave heightAir tempDewpointWater temp
2014-Nov-01 04:33N 52°21' E 003°48'9 8.7
2014-Nov-01 03:33N 52°29' E 003°51'9 8.9
2014-Nov-01 02:33N 52°38' E 003°54'9 8.8
2014-Nov-01 01:33N 52°46' E 003°56'9 8.7
2014-Nov-01 00:32N 52°55' E 003°59'8 8.6
2014-Oct-31 23:33N 53°02' E 004°08'9 9.2
2014-Oct-31 22:33N 53°08' E 004°19'9 8.6
2014-Oct-31 21:33N 53°15' E 004°27'9 8.9
2014-Oct-31 20:33N 53°24' E 004°32'10 9.8
2014-Oct-31 19:33N 53°33' E 004°37'1010.5
2014-Oct-31 18:33N 53°43' E 004°43'1010.3
2014-Oct-31 17:33N 53°53' E 004°49'1010.2
2014-Oct-31 16:33N 54°02' E 004°55'10 9.9
2014-Oct-31 15:33N 54°11' E 005°04'10 9.8
2014-Oct-31 14:33N 54°18' E 005°15'20 9.3
2014-Oct-31 12:21N 54°35' E 005°33'810.0
2014-Oct-31 11:31N 54°44' E 005°34'1010.0
2014-Oct-31 10:33N 54°53' E 005°35'1110.1
2014-Oct-31 09:29N 55°04' E 005°37'177 9.1
2014-Oct-30 14:04N 58°00' E 005°07'5 9.9
2014-Oct-30 13:33N 58°05' E 005°05'10 9.5
2014-Oct-30 12:33N 58°14' E 005°02'36 8.9
2014-Oct-30 08:33N 58°50' E 005°06'1010.0
2014-Oct-30 07:33N 58°60' E 005°10'9 9.4
2014-Oct-30 06:33N 59°06' E 005°23'9 9.2
2014-Oct-30 05:33N 59°15' E 005°31'2 0.1
2014-Oct-29 14:33N 59°16' E 005°30'8 8.4
2014-Oct-29 13:34N 59°08' E 005°29'10 9.9
2014-Oct-29 12:33N 59°02' E 005°14'10 9.6
2014-Oct-29 11:33N 58°53' E 005°07'8 8.2
2014-Oct-29 10:33N 58°45' E 005°06'148 8.6
2014-Oct-28 17:23N 56°18' E 005°40'114 8.8
2014-Oct-28 04:31N 54°25' E 005°25'10 8.7
2014-Oct-28 03:24N 54°18' E 005°13'8 9.1
2014-Oct-28 02:33N 54°11' E 005°05'9 9.1
2014-Oct-28 01:33N 54°04' E 004°57'10 9.6
2014-Oct-28 00:32N 53°54' E 004°54'9 9.6
2014-Oct-27 23:33N 53°45' E 004°53'10 9.7
2014-Oct-27 22:33N 53°35' E 004°49'10 9.9
2014-Oct-27 21:33N 53°26' E 004°42'1010.4
2014-Oct-27 20:34N 53°17' E 004°36'1111.1
2014-Oct-27 19:34N 53°07' E 004°28'1111.3
2014-Oct-27 18:34N 52°57' E 004°19'1211.9
2014-Oct-27 17:32N 52°46' E 004°10'1212.0
2014-Oct-27 16:34N 52°37' E 003°57'1312.4
2014-Oct-27 15:33N 52°28' E 003°42'1211.9
2014-Oct-27 14:33N 52°19' E 003°30'1111.5
2014-Oct-27 13:33N 52°08' E 003°27'1110.7
2014-Oct-27 12:33N 51°57' E 003°24'9 8.7
2014-Oct-27 11:33N 51°49' E 003°22'0 0.0
2014-Oct-27 10:29N 51°49' E 003°22'0 0.0
2014-Oct-27 09:32N 51°49' E 003°22'0 0.2
2014-Oct-27 08:32N 51°49' E 003°22'0 0.0
2014-Oct-27 07:32N 51°49' E 003°22'0 0.0
2014-Oct-27 06:32N 51°49' E 003°22'0 0.0
2014-Oct-27 05:29N 51°49' E 003°22'0 0.0
2014-Oct-27 04:20N 51°49' E 003°22'0 0.0
2014-Oct-27 03:29N 51°49' E 003°22'0 0.0
2014-Oct-27 02:32N 51°49' E 003°22'0 0.0
2014-Oct-27 01:26N 51°49' E 003°22'0 0.0
2014-Oct-27 00:32N 51°49' E 003°22'0 0.1
2014-Oct-26 22:29N 51°49' E 003°22'0 0.0
2014-Oct-26 21:11N 51°49' E 003°22'0 0.2
2014-Oct-26 20:26N 51°49' E 003°22'0 0.0
2014-Oct-26 19:32N 51°49' E 003°22'0 0.0
2014-Oct-26 18:23N 51°49' E 003°22'0 0.0
2014-Oct-26 17:32N 51°49' E 003°22'0 0.0
2014-Oct-26 15:23N 51°49' E 003°22'0 0.0
2014-Oct-26 14:17N 51°49' E 003°22'0 0.1
2014-Oct-26 10:26N 51°49' E 003°22'0 0.1
2014-Oct-26 08:26N 51°49' E 003°22'2 2.1
2014-Oct-26 07:31N 51°47' E 003°22'7 6.9
2014-Oct-26 06:33N 51°40' E 003°19'1212.2
2014-Oct-26 05:33N 51°30' E 003°28'1111.4
2014-Oct-26 04:34N 51°23' E 003°43'3 2.6
2014-Oct-26 03:27N 51°21' E 003°46'0 0.0
2014-Oct-26 02:33N 51°21' E 003°46'0 0.0
2014-Oct-26 01:33N 51°21' E 003°46'0 0.0
2014-Oct-26 00:33N 51°21' E 003°46'0 0.0
2014-Oct-25 23:33N 51°21' E 003°46'0 0.0
2014-Oct-25 22:33N 51°21' E 003°46'0 0.0
2014-Oct-25 21:33N 51°21' E 003°46'0 0.0
2014-Oct-25 20:33N 51°21' E 003°46'0 0.0
2014-Oct-25 19:27N 51°21' E 003°46'0 0.0
2014-Oct-25 18:33N 51°21' E 003°46'0 0.0
2014-Oct-25 17:33N 51°21' E 003°46'0 0.0
2014-Oct-25 16:33N 51°21' E 003°46'0 0.0
2014-Oct-25 15:33N 51°21' E 003°46'0 0.0
2014-Oct-25 14:33N 51°21' E 003°46'0 0.0
2014-Oct-25 13:27N 51°21' E 003°46'0 0.0
2014-Oct-25 12:33N 51°21' E 003°46'0 0.0
2014-Oct-25 11:33N 51°21' E 003°46'0 0.0
2014-Oct-25 10:33N 51°21' E 003°46'0 0.0
2014-Oct-25 09:33N 51°21' E 003°46'0 0.0
2014-Oct-25 08:33N 51°21' E 003°46'0 0.0
2014-Oct-25 07:27N 51°21' E 003°46'0 0.0
2014-Oct-25 06:33N 51°21' E 003°46'0 0.0
2014-Oct-25 05:30N 51°21' E 003°46'0 0.0
2014-Oct-25 04:33N 51°21' E 003°46'0 0.0
2014-Oct-25 03:33N 51°21' E 003°46'0 0.0
2014-Oct-25 02:33N 51°21' E 003°46'0 0.0
2014-Oct-25 01:30N 51°21' E 003°46'0 0.0
2014-Oct-25 00:30N 51°21' E 003°46'1 1.1
2014-Oct-24 23:33N 51°22' E 003°45'7 7.5
2014-Oct-24 22:33N 51°25' E 003°35'1211.7
2014-Oct-24 21:33N 51°24' E 003°16'1010.0
2014-Oct-24 20:31N 51°23' E 002°59'10 8.9
2014-Oct-24 19:21N 51°22' E 002°43'3 3.9
2014-Oct-24 18:33N 51°22' E 002°38'4 3.9
2014-Oct-24 17:32N 51°20' E 002°32'0 0.0
2014-Oct-24 16:31N 51°20' E 002°32'0 0.0
2014-Oct-24 15:31N 51°20' E 002°32'0 0.0
2014-Oct-24 14:28N 51°20' E 002°32'0 0.0
2014-Oct-24 13:31N 51°20' E 002°32'0 0.0
2014-Oct-24 12:28N 51°20' E 002°32'0 0.0
2014-Oct-24 11:31N 51°20' E 002°32'0 0.0
2014-Oct-24 10:32N 51°20' E 002°32'0 0.2
2014-Oct-24 09:28N 51°20' E 002°32'0 0.0
2014-Oct-24 08:31N 51°20' E 002°32'0 0.0
2014-Oct-24 07:25N 51°20' E 002°32'0 0.2
2014-Oct-24 06:29N 51°20' E 002°32'0 0.1
2014-Oct-24 05:31N 51°20' E 002°32'1 1.3
2014-Oct-24 04:33N 51°22' E 002°32'7 7.2
2014-Oct-24 03:33N 51°19' E 002°21'6 6.2
2014-Oct-24 02:33N 51°16' E 002°12'7 7.0
2014-Oct-24 01:34N 51°12' E 002°03'7 7.2
2014-Oct-24 00:34N 51°10' E 001°52'8 8.2
2014-Oct-23 23:34N 51°05' E 001°42'9 9.4
2014-Oct-23 22:34N 50°58' E 001°31'9 8.9
2014-Oct-23 21:30N 50°50' E 001°25'9 9.0
2014-Oct-23 20:32N 50°42' E 001°19'41 7.6
2014-Oct-23 15:07N 50°24' E 000°21'101 8.7
2014-Oct-23 03:29N 49°56' W 002°11'11 8.4
2014-Oct-23 02:13N 49°53' W 002°27'20 7.0
2014-Oct-22 23:21N 49°47' W 002°56'6 7.9
2014-Oct-22 22:33N 49°43' W 003°05'9 8.3
2014-Oct-22 21:32N 49°39' W 003°16'8 8.0
2014-Oct-22 20:33N 49°36' W 003°27'  
Track history (hours):
 
Tides and Currents Weather Stations Pressure Air Temp Water Temp Dewpoint Dewpoint Depression Visibility Wind Speed Wind Dir Waves Ship Positions

M/T Goviken

Last reported at 2014-Nov-01 04:33 UTC. Time now 2014-Nov-01 04:55 UTC.
Position N 52°21' E 003°48'.

Length 88 m; draft 6.5 m.

Type: Ship (hazmat cat C). MMSI: 215389000.

Date/timePositionNaut miles runAvg speedWind from/ knotsBaromVisibWave heightAir tempDewpointWater temp
2014-Nov-01 04:33N 52°21' E 003°48'9 8.7
2014-Nov-01 03:33N 52°29' E 003°51'9 8.9
2014-Nov-01 02:33N 52°38' E 003°54'9 8.8
2014-Nov-01 01:33N 52°46' E 003°56'9 8.7
2014-Nov-01 00:32N 52°55' E 003°59'8 8.6
2014-Oct-31 23:33N 53°02' E 004°08'9 9.2
2014-Oct-31 22:33N 53°08' E 004°19'9 8.6
2014-Oct-31 21:33N 53°15' E 004°27'9 8.9
2014-Oct-31 20:33N 53°24' E 004°32'10 9.8
2014-Oct-31 19:33N 53°33' E 004°37'1010.5
2014-Oct-31 18:33N 53°43' E 004°43'1010.3
2014-Oct-31 17:33N 53°53' E 004°49'1010.2
2014-Oct-31 16:33N 54°02' E 004°55'10 9.9
2014-Oct-31 15:33N 54°11' E 005°04'10 9.8
2014-Oct-31 14:33N 54°18' E 005°15'20 9.3
2014-Oct-31 12:21N 54°35' E 005°33'810.0
2014-Oct-31 11:31N 54°44' E 005°34'1010.0
2014-Oct-31 10:33N 54°53' E 005°35'1110.1
2014-Oct-31 09:29N 55°04' E 005°37'177 9.1
2014-Oct-30 14:04N 58°00' E 005°07'5 9.9
2014-Oct-30 13:33N 58°05' E 005°05'10 9.5
2014-Oct-30 12:33N 58°14' E 005°02'36 8.9
2014-Oct-30 08:33N 58°50' E 005°06'1010.0
2014-Oct-30 07:33N 58°60' E 005°10'9 9.4
2014-Oct-30 06:33N 59°06' E 005°23'9 9.2
2014-Oct-30 05:33N 59°15' E 005°31'2 0.1
2014-Oct-29 14:33N 59°16' E 005°30'8 8.4
2014-Oct-29 13:34N 59°08' E 005°29'10 9.9
2014-Oct-29 12:33N 59°02' E 005°14'10 9.6
2014-Oct-29 11:33N 58°53' E 005°07'8 8.2
2014-Oct-29 10:33N 58°45' E 005°06'148 8.6
2014-Oct-28 17:23N 56°18' E 005°40'114 8.8
2014-Oct-28 04:31N 54°25' E 005°25'10 8.7
2014-Oct-28 03:24N 54°18' E 005°13'8 9.1
2014-Oct-28 02:33N 54°11' E 005°05'9 9.1
2014-Oct-28 01:33N 54°04' E 004°57'10 9.6
2014-Oct-28 00:32N 53°54' E 004°54'9 9.6
2014-Oct-27 23:33N 53°45' E 004°53'10 9.7
2014-Oct-27 22:33N 53°35' E 004°49'10 9.9
2014-Oct-27 21:33N 53°26' E 004°42'1010.4
2014-Oct-27 20:34N 53°17' E 004°36'1111.1
2014-Oct-27 19:34N 53°07' E 004°28'1111.3
2014-Oct-27 18:34N 52°57' E 004°19'1211.9
2014-Oct-27 17:32N 52°46' E 004°10'1212.0
2014-Oct-27 16:34N 52°37' E 003°57'1312.4
2014-Oct-27 15:33N 52°28' E 003°42'1211.9
2014-Oct-27 14:33N 52°19' E 003°30'1111.5
2014-Oct-27 13:33N 52°08' E 003°27'1110.7
2014-Oct-27 12:33N 51°57' E 003°24'9 8.7
2014-Oct-27 11:33N 51°49' E 003°22'0 0.0
2014-Oct-27 10:29N 51°49' E 003°22'0 0.0
2014-Oct-27 09:32N 51°49' E 003°22'0 0.2
2014-Oct-27 08:32N 51°49' E 003°22'0 0.0
2014-Oct-27 07:32N 51°49' E 003°22'0 0.0
2014-Oct-27 06:32N 51°49' E 003°22'0 0.0
2014-Oct-27 05:29N 51°49' E 003°22'0 0.0
2014-Oct-27 04:20N 51°49' E 003°22'0 0.0
2014-Oct-27 03:29N 51°49' E 003°22'0 0.0
2014-Oct-27 02:32N 51°49' E 003°22'0 0.0
2014-Oct-27 01:26N 51°49' E 003°22'0 0.0
2014-Oct-27 00:32N 51°49' E 003°22'0 0.1
2014-Oct-26 22:29N 51°49' E 003°22'0 0.0
2014-Oct-26 21:11N 51°49' E 003°22'0 0.2
2014-Oct-26 20:26N 51°49' E 003°22'0 0.0
2014-Oct-26 19:32N 51°49' E 003°22'0 0.0
2014-Oct-26 18:23N 51°49' E 003°22'0 0.0
2014-Oct-26 17:32N 51°49' E 003°22'0 0.0
2014-Oct-26 15:23N 51°49' E 003°22'0 0.0
2014-Oct-26 14:17N 51°49' E 003°22'0 0.1
2014-Oct-26 10:26N 51°49' E 003°22'0 0.1
2014-Oct-26 08:26N 51°49' E 003°22'2 2.1
2014-Oct-26 07:31N 51°47' E 003°22'7 6.9
2014-Oct-26 06:33N 51°40' E 003°19'1212.2
2014-Oct-26 05:33N 51°30' E 003°28'1111.4
2014-Oct-26 04:34N 51°23' E 003°43'3 2.6
2014-Oct-26 03:27N 51°21' E 003°46'0 0.0
2014-Oct-26 02:33N 51°21' E 003°46'0 0.0
2014-Oct-26 01:33N 51°21' E 003°46'0 0.0
2014-Oct-26 00:33N 51°21' E 003°46'0 0.0
2014-Oct-25 23:33N 51°21' E 003°46'0 0.0
2014-Oct-25 22:33N 51°21' E 003°46'0 0.0
2014-Oct-25 21:33N 51°21' E 003°46'0 0.0
2014-Oct-25 20:33N 51°21' E 003°46'0 0.0
2014-Oct-25 19:27N 51°21' E 003°46'0 0.0
2014-Oct-25 18:33N 51°21' E 003°46'0 0.0
2014-Oct-25 17:33N 51°21' E 003°46'0 0.0
2014-Oct-25 16:33N 51°21' E 003°46'0 0.0
2014-Oct-25 15:33N 51°21' E 003°46'0 0.0
2014-Oct-25 14:33N 51°21' E 003°46'0 0.0
2014-Oct-25 13:27N 51°21' E 003°46'0 0.0
2014-Oct-25 12:33N 51°21' E 003°46'0 0.0
2014-Oct-25 11:33N 51°21' E 003°46'0 0.0
2014-Oct-25 10:33N 51°21' E 003°46'0 0.0
2014-Oct-25 09:33N 51°21' E 003°46'0 0.0
2014-Oct-25 08:33N 51°21' E 003°46'0 0.0
2014-Oct-25 07:27N 51°21' E 003°46'0 0.0
2014-Oct-25 06:33N 51°21' E 003°46'0 0.0
2014-Oct-25 05:30N 51°21' E 003°46'0 0.0
2014-Oct-25 04:33N 51°21' E 003°46'0 0.0
2014-Oct-25 03:33N 51°21' E 003°46'0 0.0
2014-Oct-25 02:33N 51°21' E 003°46'0 0.0
2014-Oct-25 01:30N 51°21' E 003°46'0 0.0
2014-Oct-25 00:30N 51°21' E 003°46'1 1.1
2014-Oct-24 23:33N 51°22' E 003°45'7 7.5
2014-Oct-24 22:33N 51°25' E 003°35'1211.7
2014-Oct-24 21:33N 51°24' E 003°16'1010.0
2014-Oct-24 20:31N 51°23' E 002°59'10 8.9
2014-Oct-24 19:21N 51°22' E 002°43'3 3.9
2014-Oct-24 18:33N 51°22' E 002°38'4 3.9
2014-Oct-24 17:32N 51°20' E 002°32'0 0.0
2014-Oct-24 16:31N 51°20' E 002°32'0 0.0
2014-Oct-24 15:31N 51°20' E 002°32'0 0.0
2014-Oct-24 14:28N 51°20' E 002°32'0 0.0
2014-Oct-24 13:31N 51°20' E 002°32'0 0.0
2014-Oct-24 12:28N 51°20' E 002°32'0 0.0
2014-Oct-24 11:31N 51°20' E 002°32'0 0.0
2014-Oct-24 10:32N 51°20' E 002°32'0 0.2
2014-Oct-24 09:28N 51°20' E 002°32'0 0.0
2014-Oct-24 08:31N 51°20' E 002°32'0 0.0
2014-Oct-24 07:25N 51°20' E 002°32'0 0.2
2014-Oct-24 06:29N 51°20' E 002°32'0 0.1
2014-Oct-24 05:31N 51°20' E 002°32'1 1.3
2014-Oct-24 04:33N 51°22' E 002°32'7 7.2
2014-Oct-24 03:33N 51°19' E 002°21'6 6.2
2014-Oct-24 02:33N 51°16' E 002°12'7 7.0
2014-Oct-24 01:34N 51°12' E 002°03'7 7.2
2014-Oct-24 00:34N 51°10' E 001°52'8 8.2
2014-Oct-23 23:34N 51°05' E 001°42'9 9.4
2014-Oct-23 22:34N 50°58' E 001°31'9 8.9
2014-Oct-23 21:30N 50°50' E 001°25'9 9.0
2014-Oct-23 20:32N 50°42' E 001°19'41 7.6
2014-Oct-23 15:07N 50°24' E 000°21'101 8.7
2014-Oct-23 03:29N 49°56' W 002°11'11 8.4
2014-Oct-23 02:13N 49°53' W 002°27'20 7.0
2014-Oct-22 23:21N 49°47' W 002°56'6 7.9
2014-Oct-22 22:33N 49°43' W 003°05'9 8.3
2014-Oct-22 21:32N 49°39' W 003°16'8 8.0
2014-Oct-22 20:33N 49°36' W 003°27'  

Dump ship's entire track history